createdAt,value
2022-08-30T00:00:40.154Z,16.32
2022-08-30T00:03:11.467Z,16.30
2022-08-30T00:05:43.050Z,16.30
2022-08-30T00:08:12.611Z,16.22
2022-08-30T00:10:43.397Z,16.20
2022-08-30T00:13:14.128Z,16.22
2022-08-30T00:15:44.031Z,16.20
2022-08-30T00:18:13.549Z,16.22
2022-08-30T00:20:43.393Z,16.30
2022-08-30T00:23:13.151Z,16.28
2022-08-30T00:25:43.102Z,16.28
2022-08-30T00:28:13.349Z,16.28
2022-08-30T00:30:45.321Z,16.22
2022-08-30T00:33:15.290Z,16.20
2022-08-30T00:35:45.519Z,16.20
2022-08-30T00:38:15.155Z,16.20
2022-08-30T00:40:45.650Z,16.20
2022-08-30T00:43:21.324Z,16.20
2022-08-30T00:45:54.007Z,16.20
2022-08-30T00:48:23.883Z,16.20
2022-08-30T00:50:56.942Z,16.20
2022-08-30T00:53:30.287Z,16.18
2022-08-30T00:56:00.669Z,16.14
2022-08-30T00:58:34.388Z,16.10
2022-08-30T01:01:04.291Z,16.10
2022-08-30T01:03:34.379Z,16.10
2022-08-30T01:06:05.295Z,16.10
2022-08-30T01:08:34.877Z,16.10
2022-08-30T01:11:04.702Z,16.10
2022-08-30T01:13:36.218Z,16.10
2022-08-30T01:16:06.222Z,16.10
2022-08-30T01:18:35.833Z,16.10
2022-08-30T01:21:09.257Z,16.06
2022-08-30T01:23:41.373Z,16.00
2022-08-30T01:26:11.755Z,16.00
2022-08-30T01:28:42.028Z,16.00
2022-08-30T01:31:12.039Z,16.00
2022-08-30T01:33:41.783Z,16.00
2022-08-30T01:36:14.076Z,16.00
2022-08-30T01:38:49.415Z,15.96
2022-08-30T01:41:22.990Z,15.96
2022-08-30T01:43:54.610Z,15.96
2022-08-30T01:46:27.024Z,16.00
2022-08-30T01:48:58.109Z,16.00
2022-08-30T01:51:28.363Z,15.90
2022-08-30T01:53:58.013Z,15.92
2022-08-30T01:56:28.598Z,15.96
2022-08-30T01:59:02.620Z,15.96
2022-08-30T02:01:33.833Z,16.00
2022-08-30T02:04:04.572Z,16.00
2022-08-30T02:06:34.461Z,16.00
2022-08-30T02:09:04.060Z,16.10
2022-08-30T02:11:34.603Z,16.10
2022-08-30T02:14:04.197Z,16.18
2022-08-30T02:16:33.674Z,16.20
2022-08-30T02:19:03.413Z,16.20
2022-08-30T02:21:32.911Z,16.20
2022-08-30T02:24:02.424Z,16.22
2022-08-30T02:26:32.148Z,16.30
2022-08-30T02:29:01.538Z,16.30
2022-08-30T02:31:30.969Z,16.30
2022-08-30T02:34:00.541Z,16.40
2022-08-30T02:36:30.366Z,16.40
2022-08-30T02:39:01.575Z,16.40
2022-08-30T02:41:31.014Z,16.50
2022-08-30T02:44:00.940Z,16.50
2022-08-30T02:46:34.524Z,16.50
2022-08-30T02:49:23.737Z,16.50
2022-08-30T02:51:54.733Z,16.60
2022-08-30T02:54:24.225Z,16.60
2022-08-30T02:56:53.657Z,16.60
2022-08-30T02:59:24.573Z,16.60
2022-08-30T03:01:54.333Z,16.62
2022-08-30T03:04:26.903Z,16.70
2022-08-30T03:06:56.973Z,16.70
2022-08-30T03:09:26.382Z,16.76
2022-08-30T03:11:56.297Z,16.74
2022-08-30T03:14:30.354Z,16.80
2022-08-30T03:16:59.978Z,16.80
2022-08-30T03:19:29.596Z,16.80
2022-08-30T03:21:59.636Z,16.80
2022-08-30T03:24:29.055Z,16.84
2022-08-30T03:26:59.717Z,16.90
2022-08-30T03:29:30.317Z,16.90
2022-08-30T03:31:59.832Z,16.90
2022-08-30T03:34:29.379Z,16.90
2022-08-30T03:36:59.428Z,16.90
2022-08-30T03:39:29.266Z,16.90
2022-08-30T03:41:58.692Z,16.90
2022-08-30T03:44:28.686Z,16.90
2022-08-30T03:46:58.313Z,16.90
2022-08-30T03:49:27.772Z,16.90
2022-08-30T03:51:57.289Z,16.90
2022-08-30T03:54:26.994Z,16.94
2022-08-30T03:56:56.743Z,17.00
2022-08-30T03:59:26.529Z,17.00
2022-08-30T04:01:56.220Z,17.10
2022-08-30T04:04:26.271Z,17.10
2022-08-30T04:06:56.258Z,17.10
2022-08-30T04:09:25.386Z,17.10
2022-08-30T04:11:54.953Z,17.20
2022-08-30T04:14:24.153Z,17.20
2022-08-30T04:16:58.035Z,17.20
2022-08-30T04:19:27.432Z,17.24
2022-08-30T04:21:57.852Z,17.30
2022-08-30T04:24:27.292Z,17.30
2022-08-30T04:26:56.527Z,17.30
2022-08-30T04:29:26.092Z,17.30
2022-08-30T04:31:55.364Z,17.20
2022-08-30T04:34:24.910Z,17.20
2022-08-30T04:36:54.411Z,17.20
2022-08-30T04:39:23.826Z,17.20
2022-08-30T04:41:53.523Z,17.20
2022-08-30T04:44:23.260Z,17.20
2022-08-30T04:46:52.494Z,17.20
2022-08-30T04:49:22.356Z,17.30
2022-08-30T04:51:52.055Z,17.30
2022-08-30T04:54:21.781Z,17.30
2022-08-30T04:56:51.165Z,17.30
2022-08-30T04:59:20.662Z,17.30
2022-08-30T05:01:49.813Z,17.30
2022-08-30T05:04:20.464Z,17.30
2022-08-30T05:06:49.869Z,17.30
2022-08-30T05:09:19.307Z,17.30
2022-08-30T05:11:48.913Z,17.30
2022-08-30T05:14:18.228Z,17.30
2022-08-30T05:16:47.717Z,17.30
2022-08-30T05:19:17.119Z,17.30
2022-08-30T05:21:46.839Z,17.30
2022-08-30T05:24:16.534Z,17.32
2022-08-30T05:26:46.013Z,17.30
2022-08-30T05:29:15.376Z,17.30
2022-08-30T05:31:45.374Z,17.40
2022-08-30T05:34:15.172Z,17.40
2022-08-30T05:36:44.679Z,17.46
2022-08-30T05:39:17.874Z,17.50
2022-08-30T05:41:50.506Z,17.60
2022-08-30T05:44:22.976Z,17.70
2022-08-30T05:46:55.393Z,17.70
2022-08-30T05:49:25.433Z,17.70
2022-08-30T05:51:54.817Z,17.72
2022-08-30T05:54:24.526Z,17.76
2022-08-30T05:56:54.503Z,17.80
2022-08-30T05:59:23.959Z,17.86
2022-08-30T06:01:53.476Z,17.96
2022-08-30T06:04:22.862Z,18.04
2022-08-30T06:06:52.149Z,18.10
2022-08-30T06:09:21.350Z,18.10
2022-08-30T06:11:50.751Z,18.20
2022-08-30T06:14:20.218Z,18.30
2022-08-30T06:16:51.197Z,18.40
2022-08-30T06:19:20.813Z,18.50
2022-08-30T06:21:51.955Z,18.46
2022-08-30T06:24:35.670Z,18.50
2022-08-30T06:27:11.607Z,18.50
2022-08-30T06:29:42.270Z,18.40
2022-08-30T06:32:11.303Z,18.50
2022-08-30T06:34:40.483Z,18.52
2022-08-30T06:37:09.663Z,18.70
2022-08-30T06:39:38.854Z,18.90
2022-08-30T06:42:08.944Z,19.00
2022-08-30T06:44:45.766Z,19.18
2022-08-30T06:47:15.353Z,19.30
2022-08-30T06:49:44.671Z,19.42
2022-08-30T06:52:14.439Z,19.60
2022-08-30T06:54:43.872Z,19.78
2022-08-30T06:57:13.482Z,20.04
2022-08-30T06:59:42.907Z,20.18
2022-08-30T07:02:12.303Z,20.10
2022-08-30T07:04:42.099Z,19.90
2022-08-30T07:07:12.251Z,19.70
2022-08-30T07:09:43.832Z,19.60
2022-08-30T07:12:13.792Z,19.66
2022-08-30T07:14:43.594Z,19.68
2022-08-30T07:17:34.679Z,19.70
2022-08-30T07:20:08.571Z,19.80
2022-08-30T07:22:38.544Z,19.90
2022-08-30T07:25:08.258Z,19.90
2022-08-30T07:27:37.857Z,19.90
2022-08-30T07:30:11.288Z,19.90
2022-08-30T07:32:40.456Z,20.00
2022-08-30T07:35:09.949Z,20.10
2022-08-30T07:37:39.355Z,20.18
2022-08-30T07:40:09.907Z,20.22
2022-08-30T07:42:41.548Z,20.30
2022-08-30T07:45:12.337Z,20.38
2022-08-30T07:47:41.902Z,20.50
2022-08-30T07:50:11.278Z,20.60
2022-08-30T07:52:41.124Z,20.60
2022-08-30T07:55:11.213Z,20.60
2022-08-30T07:57:40.619Z,20.68
2022-08-30T08:00:11.053Z,20.70
2022-08-30T08:02:43.468Z,20.70
2022-08-30T08:05:17.634Z,20.64
2022-08-30T08:07:48.259Z,20.60
2022-08-30T08:10:20.984Z,20.60
2022-08-30T08:12:50.571Z,20.70
2022-08-30T08:15:21.409Z,20.76
2022-08-30T08:17:50.792Z,20.80
2022-08-30T08:20:20.398Z,20.70
2022-08-30T08:22:50.528Z,20.50
2022-08-30T08:25:32.345Z,20.50
2022-08-30T08:28:02.833Z,20.50
2022-08-30T08:30:35.353Z,20.50
2022-08-30T08:33:06.801Z,20.56
2022-08-30T08:35:36.781Z,20.68
2022-08-30T08:38:06.663Z,20.70
2022-08-30T08:41:16.848Z,20.86
2022-08-30T08:43:46.254Z,21.10
2022-08-30T08:46:28.725Z,21.20
2022-08-30T08:49:01.905Z,21.22
2022-08-30T08:51:54.603Z,21.26
2022-08-30T08:54:57.991Z,21.30
2022-08-30T08:57:34.300Z,21.40
2022-08-30T09:00:12.423Z,21.52
2022-08-30T09:02:46.854Z,21.64
2022-08-30T09:05:21.184Z,21.62
2022-08-30T09:07:54.709Z,21.60
2022-08-30T09:10:40.512Z,21.60
2022-08-30T09:13:14.401Z,21.60
2022-08-30T09:15:44.353Z,21.64
2022-08-30T09:18:19.811Z,21.70
2022-08-30T09:20:50.629Z,21.70
2022-08-30T09:23:28.404Z,21.70
2022-08-30T09:26:02.501Z,21.92
2022-08-30T09:28:52.669Z,22.20
2022-08-30T09:31:26.371Z,22.28
2022-08-30T09:34:10.148Z,22.30
2022-08-30T09:36:46.565Z,22.30
2022-08-30T09:39:31.708Z,22.30
2022-08-30T09:42:21.561Z,22.30
2022-08-30T09:44:50.957Z,22.20
2022-08-30T09:47:29.578Z,22.34
2022-08-30T09:50:13.299Z,22.48
2022-08-30T09:53:12.626Z,22.68
2022-08-30T09:55:56.256Z,23.00
2022-08-30T09:58:56.283Z,23.20
2022-08-30T10:01:30.682Z,23.30
2022-08-30T10:04:36.762Z,23.40
2022-08-30T10:07:51.742Z,23.42
2022-08-30T10:10:35.470Z,23.50
2022-08-30T10:13:26.279Z,23.60
2022-08-30T10:16:27.148Z,23.60
2022-08-30T10:19:09.115Z,23.70
2022-08-30T10:22:03.506Z,23.70
2022-08-30T10:24:50.708Z,23.60
2022-08-30T10:28:11.229Z,23.44
2022-08-30T10:30:45.350Z,23.40
2022-08-30T10:33:45.849Z,23.40
2022-08-30T10:36:15.698Z,23.40
2022-08-30T10:38:50.665Z,23.38
2022-08-30T10:41:28.812Z,23.40
2022-08-30T10:44:31.147Z,23.30
2022-08-30T10:47:28.450Z,23.08
2022-08-30T10:50:29.289Z,23.00
2022-08-30T10:53:17.277Z,22.80
2022-08-30T10:56:03.624Z,23.00
2022-08-30T10:58:33.133Z,23.30
2022-08-30T11:01:46.555Z,23.40
2022-08-30T11:04:34.874Z,23.58
2022-08-30T11:07:47.015Z,23.50
2022-08-30T11:10:25.747Z,23.40
2022-08-30T11:13:21.687Z,23.50
2022-08-30T11:16:21.270Z,23.70
2022-08-30T11:18:53.643Z,23.80
2022-08-30T11:21:41.517Z,23.60
2022-08-30T11:24:14.114Z,23.50
2022-08-30T11:26:48.126Z,23.50
2022-08-30T11:29:45.022Z,23.50
2022-08-30T11:32:22.874Z,23.50
2022-08-30T11:34:59.817Z,23.60
2022-08-30T11:37:42.834Z,23.40
2022-08-30T11:40:20.937Z,23.40
2022-08-30T11:42:51.977Z,23.34
2022-08-30T11:45:25.390Z,23.22
2022-08-30T11:47:59.559Z,23.30
2022-08-30T11:50:53.394Z,23.30
2022-08-30T11:53:29.003Z,23.30
2022-08-30T11:56:52.125Z,23.50
2022-08-30T11:59:30.684Z,23.50
2022-08-30T12:02:02.271Z,23.70
2022-08-30T12:04:46.366Z,23.88
2022-08-30T12:08:02.736Z,24.14
2022-08-30T12:10:47.244Z,24.66
2022-08-30T12:13:38.956Z,24.90
2022-08-30T12:16:22.447Z,25.00
2022-08-30T12:19:01.637Z,24.90
2022-08-30T12:21:44.909Z,24.70
2022-08-30T12:24:48.313Z,24.54
2022-08-30T12:27:33.032Z,24.50
2022-08-30T12:30:08.186Z,24.40
2022-08-30T12:32:48.753Z,24.30
2022-08-30T12:35:24.238Z,24.12
2022-08-30T12:38:28.010Z,24.10
2022-08-30T12:41:00.713Z,24.10
2022-08-30T12:43:41.656Z,24.20
2022-08-30T12:46:15.427Z,24.30
2022-08-30T12:48:45.345Z,24.30
2022-08-30T12:51:42.364Z,24.20
2022-08-30T12:54:28.287Z,24.10
2022-08-30T12:57:19.284Z,23.96
2022-08-30T12:59:59.572Z,23.84
2022-08-30T13:02:54.047Z,23.70
2022-08-30T13:05:47.889Z,23.60
2022-08-30T13:08:27.359Z,23.56
2022-08-30T13:11:05.740Z,23.60
2022-08-30T13:13:52.612Z,23.68
2022-08-30T13:16:38.819Z,23.60
2022-08-30T13:19:39.093Z,23.64
2022-08-30T13:22:41.637Z,23.60
2022-08-30T13:25:12.785Z,23.50
2022-08-30T13:27:42.440Z,23.60
2022-08-30T13:30:18.665Z,23.56
2022-08-30T13:32:48.464Z,23.40
2022-08-30T13:35:17.825Z,23.34
2022-08-30T13:37:50.232Z,23.24
2022-08-30T13:40:22.515Z,23.24
2022-08-30T13:42:51.931Z,23.20
2022-08-30T13:48:12.941Z,23.30
2022-08-30T13:50:43.512Z,23.40
2022-08-30T13:53:12.896Z,23.40
2022-08-30T13:55:42.892Z,23.30
2022-08-30T13:58:13.652Z,23.30
2022-08-30T14:00:46.562Z,23.20
2022-08-30T14:03:16.621Z,23.10
2022-08-30T14:05:54.719Z,23.08
2022-08-30T14:08:48.544Z,22.90
2022-08-30T14:11:24.439Z,22.90
2022-08-30T14:16:44.754Z,23.20
2022-08-30T14:19:16.049Z,23.30
2022-08-30T14:21:48.962Z,23.38
2022-08-30T14:24:21.517Z,23.40
2022-08-30T14:26:52.563Z,23.50
2022-08-30T14:29:26.506Z,23.60
2022-08-30T14:31:59.842Z,23.70
2022-08-30T14:34:30.402Z,23.80
2022-08-30T14:37:02.351Z,23.82
2022-08-30T14:39:33.014Z,23.90
2022-08-30T14:42:03.501Z,24.06
2022-08-30T14:44:54.677Z,24.16
2022-08-30T14:47:26.878Z,24.20
2022-08-30T14:50:01.212Z,24.18
2022-08-30T14:52:30.632Z,24.16
2022-08-30T14:55:08.465Z,24.20
2022-08-30T14:57:41.720Z,24.14
2022-08-30T15:00:13.624Z,24.20
2022-08-30T15:02:43.382Z,24.40
2022-08-30T15:05:12.791Z,24.58
2022-08-30T15:07:43.843Z,24.60
2022-08-30T15:10:15.604Z,24.56
2022-08-30T15:12:51.323Z,24.50
2022-08-30T15:15:23.904Z,24.50
2022-08-30T15:17:53.331Z,24.54
2022-08-30T15:20:23.781Z,24.50
2022-08-30T15:22:53.181Z,24.40
2022-08-30T15:25:22.721Z,24.20
2022-08-30T15:27:52.162Z,24.20
2022-08-30T15:30:24.039Z,24.20
2022-08-30T15:32:53.780Z,24.20
2022-08-30T15:35:23.356Z,24.20
2022-08-30T15:37:53.303Z,24.00
2022-08-30T15:40:22.617Z,23.90
2022-08-30T15:42:53.581Z,23.70
2022-08-30T15:45:24.321Z,23.50
2022-08-30T15:47:53.842Z,23.40
2022-08-30T15:50:23.854Z,23.30
2022-08-30T15:52:53.662Z,23.20
2022-08-30T15:55:25.747Z,23.10
2022-08-30T15:57:56.252Z,23.00
2022-08-30T16:00:25.972Z,22.94
2022-08-30T16:02:55.682Z,22.90
2022-08-30T16:05:25.311Z,22.88
2022-08-30T16:07:54.589Z,22.80
2022-08-30T16:10:24.607Z,22.70
2022-08-30T16:13:00.556Z,22.60
2022-08-30T16:15:30.168Z,22.50
2022-08-30T16:17:59.667Z,22.40
2022-08-30T16:20:29.688Z,22.30
2022-08-30T16:22:59.066Z,22.20
2022-08-30T16:25:40.882Z,22.20
2022-08-30T16:28:10.795Z,22.10
2022-08-30T16:30:40.302Z,22.10
2022-08-30T16:33:10.211Z,22.10
2022-08-30T16:35:40.437Z,22.10
2022-08-30T16:38:10.047Z,22.10
2022-08-30T16:40:39.676Z,22.00
2022-08-30T16:43:13.620Z,22.00
2022-08-30T16:45:45.863Z,21.90
2022-08-30T16:48:15.973Z,21.80
2022-08-30T16:50:46.095Z,21.70
2022-08-30T16:53:15.821Z,21.60
2022-08-30T16:55:45.753Z,21.50
2022-08-30T16:58:18.960Z,21.40
2022-08-30T17:00:50.620Z,21.30
2022-08-30T17:03:21.184Z,21.20
2022-08-30T17:05:51.187Z,21.20
2022-08-30T17:08:26.994Z,21.18
2022-08-30T17:10:56.141Z,21.10
2022-08-30T17:13:26.153Z,21.00
2022-08-30T17:15:56.454Z,21.00
2022-08-30T17:18:26.655Z,20.90
2022-08-30T17:20:56.146Z,20.80
2022-08-30T17:23:26.225Z,20.80
2022-08-30T17:25:57.443Z,20.70
2022-08-30T17:28:26.922Z,20.60
2022-08-30T17:30:56.551Z,20.60
2022-08-30T17:33:26.016Z,20.50
2022-08-30T17:35:55.803Z,20.50
2022-08-30T17:38:25.614Z,20.42
2022-08-30T17:40:57.924Z,20.40
2022-08-30T17:43:27.933Z,20.40
2022-08-30T17:46:10.059Z,20.30
2022-08-30T17:48:41.121Z,20.30
2022-08-30T17:51:11.051Z,20.24
2022-08-30T17:53:40.972Z,20.20
2022-08-30T17:56:10.667Z,20.18
2022-08-30T17:58:40.430Z,20.10
2022-08-30T18:01:14.815Z,20.00
2022-08-30T18:03:45.487Z,20.00
2022-08-30T18:06:18.774Z,19.90
2022-08-30T18:08:48.925Z,19.90
2022-08-30T18:11:19.595Z,19.80
2022-08-30T18:13:50.402Z,19.80
2022-08-30T18:16:21.756Z,19.70
2022-08-30T18:18:58.124Z,19.60
2022-08-30T18:21:28.341Z,19.50
2022-08-30T18:24:01.131Z,19.40
2022-08-30T18:26:32.788Z,19.30
2022-08-30T18:29:04.022Z,19.24
2022-08-30T18:31:33.336Z,19.20
2022-08-30T18:34:02.855Z,19.10
2022-08-30T18:36:34.224Z,19.10
2022-08-30T18:39:04.335Z,19.10
2022-08-30T18:41:36.406Z,19.08
2022-08-30T18:44:26.826Z,19.00
2022-08-30T18:47:00.343Z,19.00
2022-08-30T18:49:32.223Z,19.00
2022-08-30T18:52:03.495Z,19.00
2022-08-30T18:54:33.897Z,19.00
2022-08-30T18:57:03.494Z,18.96
2022-08-30T18:59:35.552Z,18.94
2022-08-30T19:02:13.186Z,18.92
2022-08-30T19:04:45.213Z,18.90
2022-08-30T19:07:16.655Z,18.90
2022-08-30T19:09:45.987Z,18.90
2022-08-30T19:12:15.305Z,18.90
2022-08-30T19:14:46.116Z,18.90
2022-08-30T19:17:15.833Z,18.90
2022-08-30T19:19:47.487Z,18.90
2022-08-30T19:22:21.309Z,18.90
2022-08-30T19:24:51.096Z,18.90
2022-08-30T19:27:21.553Z,18.90
2022-08-30T19:30:18.650Z,18.90
2022-08-30T19:32:51.669Z,18.90
2022-08-30T19:35:22.597Z,18.80
2022-08-30T19:37:52.311Z,18.80
2022-08-30T19:40:22.438Z,18.80
2022-08-30T19:42:52.510Z,18.80
2022-08-30T19:45:23.330Z,18.80
2022-08-30T19:47:53.863Z,18.80
2022-08-30T19:50:23.536Z,18.80
2022-08-30T19:52:54.760Z,18.80
2022-08-30T19:55:30.105Z,18.84
2022-08-30T19:58:02.366Z,18.90
2022-08-30T20:00:31.995Z,18.88
2022-08-30T20:03:02.018Z,18.90
2022-08-30T20:05:32.636Z,18.90
2022-08-30T20:08:02.045Z,18.90
2022-08-30T20:10:31.383Z,18.90
2022-08-30T20:13:01.145Z,18.90
2022-08-30T20:15:30.667Z,18.90
2022-08-30T20:18:06.049Z,18.90
2022-08-30T20:20:49.544Z,18.82
2022-08-30T20:23:23.191Z,18.80
2022-08-30T20:25:53.765Z,18.80
2022-08-30T20:28:24.919Z,18.70
2022-08-30T20:30:56.474Z,18.70
2022-08-30T20:33:26.177Z,18.70
2022-08-30T20:35:56.037Z,18.72
2022-08-30T20:38:25.815Z,18.70
2022-08-30T20:40:58.945Z,18.70
2022-08-30T20:43:30.396Z,18.60
2022-08-30T20:45:59.574Z,18.60
2022-08-30T20:48:29.619Z,18.50
2022-08-30T20:50:59.270Z,18.50
2022-08-30T20:53:29.236Z,18.50
2022-08-30T20:55:58.216Z,18.50
2022-08-30T20:58:27.696Z,18.50
2022-08-30T21:00:56.903Z,18.50
2022-08-30T21:03:28.187Z,18.50
2022-08-30T21:06:03.152Z,18.56
2022-08-30T21:08:33.016Z,18.56
2022-08-30T21:11:02.578Z,18.56
2022-08-30T21:13:31.906Z,18.60
2022-08-30T21:16:03.336Z,18.60
2022-08-30T21:18:34.543Z,18.60
2022-08-30T21:21:12.955Z,18.52
2022-08-30T21:23:43.351Z,18.54
2022-08-30T21:26:15.274Z,18.50
2022-08-30T21:28:54.806Z,18.52
2022-08-30T21:31:26.839Z,18.50
2022-08-30T21:33:56.997Z,18.50
2022-08-30T21:36:46.515Z,18.50
2022-08-30T21:39:27.224Z,18.50
2022-08-30T21:41:57.766Z,18.50
2022-08-30T21:44:27.697Z,18.40
2022-08-30T21:46:56.955Z,18.40
2022-08-30T21:49:26.343Z,18.44
2022-08-30T21:51:56.396Z,18.40
2022-08-30T21:54:28.336Z,18.40
2022-08-30T21:57:02.568Z,18.40
2022-08-30T21:59:32.428Z,18.30
2022-08-30T22:02:01.886Z,18.30
2022-08-30T22:04:31.181Z,18.30
2022-08-30T22:07:02.946Z,18.30
2022-08-30T22:09:32.495Z,18.30
2022-08-30T22:12:01.646Z,18.30
2022-08-30T22:14:32.043Z,18.30
2022-08-30T22:17:01.669Z,18.30
2022-08-30T22:19:31.591Z,18.30
2022-08-30T22:22:03.614Z,18.30
2022-08-30T22:24:33.093Z,18.28
2022-08-30T22:27:06.258Z,18.20
2022-08-30T22:29:35.655Z,18.20
2022-08-30T22:32:06.116Z,18.20
2022-08-30T22:34:35.697Z,18.20
2022-08-30T22:37:05.464Z,18.20
2022-08-30T22:39:35.011Z,18.18
2022-08-30T22:42:04.949Z,18.10
2022-08-30T22:44:34.324Z,18.10
2022-08-30T22:47:03.836Z,18.10
2022-08-30T22:49:33.132Z,18.10
2022-08-30T22:52:02.756Z,18.10
2022-08-30T22:54:33.442Z,18.06
2022-08-30T22:57:04.479Z,18.06
2022-08-30T22:59:34.745Z,18.04
2022-08-30T23:02:04.569Z,18.08
2022-08-30T23:04:36.542Z,18.10
2022-08-30T23:07:06.224Z,18.10
2022-08-30T23:09:35.423Z,18.08
2022-08-30T23:12:06.729Z,18.04
2022-08-30T23:14:35.938Z,18.00
2022-08-30T23:17:05.268Z,18.00
2022-08-30T23:19:34.572Z,18.00
2022-08-30T23:22:04.284Z,18.00
2022-08-30T23:24:52.319Z,18.00
2022-08-30T23:27:40.453Z,18.00
2022-08-30T23:30:29.323Z,18.00
2022-08-30T23:33:17.391Z,17.94
2022-08-30T23:36:05.502Z,17.90
2022-08-30T23:38:53.948Z,17.92
2022-08-30T23:41:42.503Z,17.90
2022-08-30T23:44:30.962Z,17.90
2022-08-30T23:47:19.498Z,17.90
2022-08-30T23:50:07.634Z,17.90
2022-08-30T23:52:55.575Z,17.90
2022-08-30T23:55:43.820Z,17.90
2022-08-30T23:58:31.890Z,17.90
